Time;durP1;ratioP1;P1;durP2;ratioP2;P2;SDS_P1;SDS_P2;PMS_P1;PMS_P2;Temp;Humidity;BMP_temperature;BMP_pressure;BME280_temperature;BME280_humidity;BME280_pressure;Samples;Min_cycle;Max_cycle;Signal;HPM_P1;HPM_P2
2023/05/17 00:00:48;;;;;;;18.95;5.72;;;9.70;99.90;;;;;;5131242;27;20581;-75
2023/05/17 00:03:13;;;;;;;17.38;5.53;;;9.70;99.90;;;;;;5123907;27;20050;-74
2023/05/17 00:05:39;;;;;;;15.43;4.75;;;9.60;99.90;;;;;;5125232;27;20150;-75
2023/05/17 00:08:05;;;;;;;14.73;5.28;;;9.60;99.90;;;;;;5139174;27;20380;-75
2023/05/17 00:10:30;;;;;;;18.40;5.93;;;9.50;99.90;;;;;;5123649;27;20829;-75
2023/05/17 00:12:56;;;;;;;16.10;5.28;;;9.50;99.90;;;;;;5101111;27;20050;-76
2023/05/17 00:15:22;;;;;;;16.83;5.60;;;9.50;99.90;;;;;;5134352;27;20082;-75
2023/05/17 00:17:47;;;;;;;18.85;6.00;;;9.50;99.90;;;;;;5132979;27;20066;-75
2023/05/17 00:20:13;;;;;;;15.32;4.68;;;9.40;99.90;;;;;;5134713;27;20046;-75
2023/05/17 00:22:39;;;;;;;13.90;5.85;;;9.40;99.90;;;;;;5143850;27;20089;-76
2023/05/17 00:25:06;;;;;;;17.77;4.95;;;9.40;99.90;;;;;;5115376;27;20536;-75
2023/05/17 00:27:31;;;;;;;15.43;5.47;;;9.40;99.90;;;;;;5114370;27;20106;-75
2023/05/17 00:29:57;;;;;;;17.77;5.03;;;9.40;99.90;;;;;;5126947;27;20047;-75
2023/05/17 00:32:23;;;;;;;14.63;5.00;;;9.50;99.90;;;;;;5133252;27;20046;-75
2023/05/17 00:34:49;;;;;;;18.58;5.88;;;9.50;99.90;;;;;;5134237;27;20089;-76
2023/05/17 00:37:14;;;;;;;9.48;4.40;;;9.50;99.90;;;;;;5129678;27;20045;-75
2023/05/17 00:39:40;;;;;;;12.50;5.65;;;9.60;99.90;;;;;;5142878;27;20097;-75
2023/05/17 00:42:06;;;;;;;17.52;5.32;;;9.60;99.90;;;;;;5125443;27;20154;-75
2023/05/17 00:44:32;;;;;;;13.13;5.63;;;9.50;99.90;;;;;;5124124;27;20054;-76
2023/05/17 00:46:58;;;;;;;12.10;5.55;;;9.40;99.90;;;;;;5131400;27;20047;-75
2023/05/17 00:49:25;;;;;;;16.63;5.05;;;9.40;99.90;;;;;;5140042;27;20125;-76
2023/05/17 00:51:52;;;;;;;12.80;4.70;;;9.30;99.90;;;;;;5128822;27;20043;-75
2023/05/17 00:54:18;;;;;;;13.90;5.13;;;9.30;99.90;;;;;;5137907;27;20046;-75
2023/05/17 00:56:44;;;;;;;11.30;5.00;;;9.20;99.90;;;;;;5131148;27;20050;-75
2023/05/17 00:59:12;;;;;;;16.75;5.72;;;9.20;99.90;;;;;;5130720;27;20413;-76
2023/05/17 01:01:41;;;;;;;14.65;4.90;;;9.20;99.90;;;;;;5140849;27;20060;-75
2023/05/17 01:04:08;;;;;;;8.30;4.45;;;9.10;99.90;;;;;;5120036;27;20051;-76
2023/05/17 01:06:35;;;;;;;9.40;4.47;;;9.10;99.90;;;;;;5122180;27;20106;-75
2023/05/17 01:09:01;;;;;;;20.73;6.35;;;9.10;99.90;;;;;;5137039;27;20057;-75
2023/05/17 01:11:54;;;;;;;10.40;5.95;;;9.10;99.90;;;;;;5138006;27;20047;-75
2023/05/17 01:14:38;;;;;;;14.63;5.20;;;9.10;99.90;;;;;;5122418;27;20054;-75
2023/05/17 01:17:27;;;;;;;14.25;5.15;;;9.10;99.90;;;;;;5110159;27;20683;-76
2023/05/17 01:20:00;;;;;;;15.48;5.22;;;9.10;99.90;;;;;;5136194;27;20051;-75
2023/05/17 01:22:47;;;;;;;9.70;4.60;;;9.10;99.90;;;;;;5136835;27;20055;-75
2023/05/17 01:25:19;;;;;;;14.60;4.97;;;9.00;99.90;;;;;;5128374;27;20059;-75
2023/05/17 01:27:49;;;;;;;14.32;5.70;;;9.00;99.90;;;;;;5138825;27;20383;-75
2023/05/17 01:30:17;;;;;;;10.98;6.10;;;9.00;99.90;;;;;;5132056;27;20064;-75
2023/05/17 01:32:43;;;;;;;14.63;4.57;;;9.00;99.90;;;;;;5126239;27;20035;-76
2023/05/17 01:35:12;;;;;;;14.65;5.25;;;9.00;99.90;;;;;;5114317;27;20058;-76
2023/05/17 01:37:38;;;;;;;11.98;5.15;;;8.90;99.90;;;;;;5128972;27;20089;-75
2023/05/17 01:40:07;;;;;;;11.30;3.95;;;8.90;99.90;;;;;;5118661;27;20887;-75
2023/05/17 01:42:34;;;;;;;14.18;5.95;;;8.90;99.90;;;;;;5135989;27;20087;-75
2023/05/17 01:45:32;;;;;;;11.20;4.50;;;8.80;99.90;;;;;;5106137;27;20130;-75
2023/05/17 01:48:04;;;;;;;12.35;5.00;;;8.80;99.90;;;;;;5109539;27;20055;-75
2023/05/17 01:50:32;;;;;;;13.23;4.82;;;8.80;99.90;;;;;;5122240;27;20195;-75
2023/05/17 01:53:14;;;;;;;10.27;5.28;;;8.80;99.90;;;;;;5141211;27;20129;-75
2023/05/17 01:55:49;;;;;;;12.55;4.22;;;8.80;99.90;;;;;;5141146;27;20054;-75
2023/05/17 01:58:20;;;;;;;17.98;6.30;;;8.80;99.90;;;;;;5124097;27;20119;-75
2023/05/17 02:00:47;;;;;;;11.35;5.13;;;8.80;99.90;;;;;;5116762;27;20077;-76
2023/05/17 02:03:18;;;;;;;12.45;4.80;;;8.80;99.90;;;;;;5104827;27;20783;-76
2023/05/17 02:05:44;;;;;;;11.07;5.30;;;8.80;99.90;;;;;;5125128;27;20046;-75
2023/05/17 02:08:10;;;;;;;13.38;5.07;;;8.90;99.90;;;;;;5115960;27;20575;-75
2023/05/17 02:10:35;;;;;;;13.75;4.90;;;8.80;99.90;;;;;;5142343;27;20078;-75
2023/05/17 02:13:01;;;;;;;10.80;4.13;;;8.80;99.90;;;;;;5139500;27;21110;-75
2023/05/17 02:15:27;;;;;;;10.30;4.80;;;8.70;99.90;;;;;;5142132;27;20054;-74
2023/05/17 02:17:53;;;;;;;10.07;4.72;;;8.70;99.90;;;;;;5143021;27;20114;-76
2023/05/17 02:20:18;;;;;;;13.98;4.90;;;8.70;99.90;;;;;;5137403;27;20035;-75
2023/05/17 02:22:44;;;;;;;10.70;4.82;;;8.70;99.90;;;;;;5125584;27;20495;-75
2023/05/17 02:25:10;;;;;;;16.40;4.72;;;8.60;99.90;;;;;;5134147;27;20043;-75
2023/05/17 02:27:36;;;;;;;15.68;5.60;;;8.60;99.90;;;;;;5113976;27;20042;-76
2023/05/17 02:30:03;;;;;;;11.80;4.97;;;8.50;99.90;;;;;;5114073;27;20106;-76
2023/05/17 02:32:29;;;;;;;13.25;4.53;;;8.50;99.90;;;;;;5132271;27;20047;-76
2023/05/17 02:34:55;;;;;;;9.68;4.30;;;8.40;99.90;;;;;;5128559;27;20053;-76
2023/05/17 02:37:21;;;;;;;13.65;4.70;;;8.40;99.90;;;;;;5117650;27;20043;-75
2023/05/17 02:39:46;;;;;;;13.27;5.00;;;8.40;99.90;;;;;;5122346;27;20085;-75
2023/05/17 02:42:12;;;;;;;10.98;4.72;;;8.30;99.90;;;;;;5138291;27;20050;-75
2023/05/17 02:44:38;;;;;;;11.20;4.10;;;8.20;99.90;;;;;;5139022;27;20046;-76
2023/05/17 02:47:04;;;;;;;5.97;3.45;;;8.20;99.90;;;;;;5137617;27;20043;-75
2023/05/17 02:49:30;;;;;;;10.55;4.65;;;8.20;99.90;;;;;;5107862;27;20114;-76
2023/05/17 02:51:55;;;;;;;10.85;4.15;;;8.30;99.90;;;;;;5128389;27;20051;-76
2023/05/17 02:54:21;;;;;;;11.80;3.85;;;8.30;99.90;;;;;;5136663;27;20043;-75
2023/05/17 02:56:47;;;;;;;13.75;3.53;;;8.30;99.90;;;;;;5137697;27;20062;-76
2023/05/17 02:59:12;;;;;;;9.25;3.42;;;8.40;99.90;;;;;;5126178;27;20050;-76
2023/05/17 03:01:38;;;;;;;11.20;4.30;;;8.40;99.90;;;;;;5114922;27;20043;-77
2023/05/17 03:04:04;;;;;;;11.45;4.57;;;8.40;99.90;;;;;;5120053;27;20043;-77
2023/05/17 03:06:30;;;;;;;12.75;4.55;;;8.50;99.90;;;;;;5104540;27;20517;-77
2023/05/17 03:08:56;;;;;;;13.57;4.20;;;8.50;99.90;;;;;;5135258;27;20082;-76
2023/05/17 03:11:22;;;;;;;14.05;4.43;;;8.50;99.90;;;;;;5143721;27;20050;-75
2023/05/17 03:13:50;;;;;;;10.13;4.32;;;8.50;99.90;;;;;;5141194;27;20046;-74
2023/05/17 03:16:17;;;;;;;9.77;4.30;;;8.40;99.90;;;;;;5121521;27;20320;-75
2023/05/17 03:18:43;;;;;;;10.57;4.78;;;8.40;99.90;;;;;;5122511;27;20082;-75
2023/05/17 03:21:09;;;;;;;7.38;4.10;;;8.40;99.90;;;;;;5138943;27;20138;-75
2023/05/17 03:23:35;;;;;;;10.18;3.55;;;8.50;99.90;;;;;;5094773;28;20392;-74
2023/05/17 03:26:00;;;;;;;10.68;4.07;;;8.40;99.90;;;;;;5129861;27;20563;-74
2023/05/17 03:28:26;;;;;;;12.40;4.43;;;8.40;99.90;;;;;;5119748;27;20047;-74
2023/05/17 03:30:52;;;;;;;12.45;4.28;;;8.50;99.90;;;;;;5136678;27;20039;-75
2023/05/17 03:33:18;;;;;;;14.55;4.22;;;8.40;99.90;;;;;;5130581;27;20043;-75
2023/05/17 03:35:45;;;;;;;9.48;3.92;;;8.50;99.90;;;;;;5126925;27;20050;-74
2023/05/17 03:38:12;;;;;;;7.30;3.92;;;8.40;99.90;;;;;;5115865;27;20454;-74
2023/05/17 03:40:38;;;;;;;5.05;3.63;;;8.50;99.90;;;;;;5141063;27;20552;-75
2023/05/17 03:43:04;;;;;;;7.85;3.90;;;8.50;99.90;;;;;;5131913;27;20054;-75
2023/05/17 03:45:29;;;;;;;8.07;3.25;;;8.50;99.90;;;;;;5133045;27;20055;-74
2023/05/17 03:47:55;;;;;;;7.63;3.78;;;8.60;99.90;;;;;;5133736;27;20053;-74
2023/05/17 03:50:21;;;;;;;11.00;3.50;;;8.60;99.90;;;;;;5125499;27;20494;-74
2023/05/17 03:52:47;;;;;;;11.13;4.13;;;8.60;99.90;;;;;;5129138;27;20054;-75
2023/05/17 03:55:13;;;;;;;7.97;3.40;;;8.60;99.90;;;;;;5129547;27;20047;-75
2023/05/17 03:57:38;;;;;;;9.50;3.10;;;8.60;99.90;;;;;;5131254;27;20050;-74
2023/05/17 04:00:11;;;;;;;8.27;3.88;;;8.60;99.90;;;;;;5127739;27;20035;-74
2023/05/17 04:02:37;;;;;;;13.88;3.30;;;8.10;99.90;;;;;;5109347;27;20053;-74
2023/05/17 04:05:03;;;;;;;7.20;3.55;;;8.50;99.90;;;;;;5139493;27;20437;-74
2023/05/17 04:07:29;;;;;;;10.45;3.50;;;8.50;99.90;;;;;;5119367;27;20536;-74
2023/05/17 04:10:01;;;;;;;9.75;3.65;;;8.50;99.90;;;;;;5134746;27;20050;-74
2023/05/17 04:12:27;;;;;;;7.90;3.15;;;8.50;99.90;;;;;;5106218;27;20414;-74
2023/05/17 04:14:53;;;;;;;10.25;3.85;;;8.50;99.90;;;;;;5138872;27;20046;-74
2023/05/17 04:17:19;;;;;;;12.00;3.60;;;8.50;99.90;;;;;;5143352;27;20763;-74
2023/05/17 04:19:45;;;;;;;10.20;3.85;;;8.60;99.90;;;;;;5123012;27;20051;-75
2023/05/17 04:22:11;;;;;;;6.63;3.00;;;8.60;99.90;;;;;;5117788;27;20104;-75
2023/05/17 04:24:36;;;;;;;5.95;3.35;;;8.70;99.90;;;;;;5118210;27;20457;-75
2023/05/17 04:27:05;;;;;;;7.70;3.00;;;8.70;99.90;;;;;;5124498;27;20051;-74
2023/05/17 04:29:31;;;;;;;8.90;3.00;;;8.80;99.90;;;;;;5111735;27;20085;-75
2023/05/17 04:31:58;;;;;;;11.43;2.85;;;8.80;99.90;;;;;;5123834;27;20055;-75
2023/05/17 04:34:23;;;;;;;9.55;3.08;;;8.80;99.90;;;;;;5137297;27;20118;-75
2023/05/17 04:36:49;;;;;;;8.73;3.45;;;8.90;99.90;;;;;;5137108;27;20061;-75
2023/05/17 04:39:16;;;;;;;9.77;3.13;;;8.90;99.90;;;;;;5122728;27;20088;-75
2023/05/17 04:41:42;;;;;;;10.00;3.25;;;8.90;99.90;;;;;;5140966;27;20043;-75
2023/05/17 04:44:08;;;;;;;7.95;3.40;;;9.00;99.90;;;;;;5117606;27;20065;-75
2023/05/17 04:46:33;;;;;;;6.43;3.08;;;9.00;99.90;;;;;;5139663;27;20883;-74
2023/05/17 04:48:59;;;;;;;5.55;2.78;;;9.00;99.90;;;;;;5135858;27;20047;-75
2023/05/17 04:51:28;;;;;;;9.73;3.33;;;9.10;99.90;;;;;;5111687;27;20811;-75
2023/05/17 04:53:54;;;;;;;8.65;3.13;;;9.10;99.90;;;;;;5135703;27;20043;-75
2023/05/17 04:56:20;;;;;;;9.15;2.65;;;9.20;99.90;;;;;;5139510;27;20061;-76
2023/05/17 04:58:45;;;;;;;5.30;2.50;;;9.20;99.90;;;;;;5136729;27;20047;-73
2023/05/17 05:01:11;;;;;;;4.68;2.72;;;9.20;99.90;;;;;;5139847;27;20681;-76
2023/05/17 05:03:37;;;;;;;6.05;2.65;;;9.30;99.90;;;;;;5131249;27;20043;-74
2023/05/17 05:06:03;;;;;;;6.03;2.40;;;9.30;99.90;;;;;;5111317;27;20649;-75
2023/05/17 05:08:29;;;;;;;11.10;3.42;;;9.30;99.90;;;;;;5105734;27;20159;-75
2023/05/17 05:10:55;;;;;;;6.63;2.33;;;9.40;99.90;;;;;;5115466;27;20054;-74
2023/05/17 05:13:21;;;;;;;8.13;3.05;;;9.40;99.90;;;;;;5133865;27;20883;-74
2023/05/17 05:15:47;;;;;;;8.02;2.60;;;9.40;99.90;;;;;;5123954;27;20047;-72
2023/05/17 05:18:12;;;;;;;8.23;3.47;;;9.40;99.90;;;;;;5115811;27;20069;-72
2023/05/17 05:20:38;;;;;;;5.43;2.47;;;9.40;99.90;;;;;;5116074;27;20047;-73
2023/05/17 05:23:04;;;;;;;5.25;3.28;;;9.40;99.90;;;;;;5105215;27;20121;-74
2023/05/17 05:25:31;;;;;;;6.95;2.50;;;9.50;99.90;;;;;;5101832;27;20094;-74
2023/05/17 05:27:57;;;;;;;5.38;2.50;;;9.60;99.90;;;;;;5121366;27;20462;-74
2023/05/17 05:30:22;;;;;;;4.85;2.30;;;9.60;99.90;;;;;;5141229;27;20046;-73
2023/05/17 05:32:49;;;;;;;12.02;3.15;;;9.70;99.90;;;;;;5128025;27;20045;-74
2023/05/17 05:35:15;;;;;;;10.00;2.83;;;9.70;99.90;;;;;;5115860;27;20051;-75
2023/05/17 05:37:42;;;;;;;7.75;3.05;;;9.80;99.90;;;;;;5105573;27;20047;-74
2023/05/17 05:40:09;;;;;;;6.88;2.40;;;9.80;99.90;;;;;;5128034;27;20043;-74
2023/05/17 05:42:34;;;;;;;11.75;2.70;;;9.90;99.90;;;;;;5113691;27;20498;-74
2023/05/17 05:45:00;;;;;;;6.45;2.63;;;9.90;99.90;;;;;;5130016;27;20038;-74
2023/05/17 05:47:26;;;;;;;8.88;2.65;;;10.00;99.90;;;;;;5106013;27;20079;-72
2023/05/17 05:49:51;;;;;;;7.85;2.20;;;10.00;99.90;;;;;;5129047;27;20043;-74
2023/05/17 05:52:17;;;;;;;7.50;2.38;;;10.10;99.90;;;;;;5124922;27;20096;-73
2023/05/17 05:54:44;;;;;;;11.63;3.25;;;10.00;99.90;;;;;;5129382;27;20057;-75
2023/05/17 05:57:09;;;;;;;7.43;2.65;;;10.10;99.90;;;;;;5115568;27;20920;-75
2023/05/17 05:59:35;;;;;;;7.10;3.05;;;10.10;99.90;;;;;;5123069;27;20121;-74
2023/05/17 06:02:01;;;;;;;8.40;2.78;;;10.00;99.90;;;;;;5136020;27;20047;-73
2023/05/17 06:04:27;;;;;;;10.27;2.75;;;9.10;99.90;;;;;;5126635;27;20499;-73
2023/05/17 06:06:56;;;;;;;8.68;3.10;;;9.90;99.90;;;;;;5121797;27;20397;-73
2023/05/17 06:09:21;;;;;;;13.40;3.13;;;10.00;99.90;;;;;;5130461;27;20046;-75
2023/05/17 06:11:47;;;;;;;9.90;3.25;;;10.00;99.90;;;;;;5107656;27;20113;-72
2023/05/17 06:14:13;;;;;;;9.43;3.85;;;10.10;99.90;;;;;;5137490;27;20045;-72
2023/05/17 06:16:38;;;;;;;9.38;3.00;;;10.00;99.90;;;;;;5126392;27;20567;-72
2023/05/17 06:19:04;;;;;;;7.75;3.10;;;10.10;99.90;;;;;;5134439;27;20049;-74
2023/05/17 06:21:30;;;;;;;9.68;3.45;;;10.20;99.90;;;;;;5124983;27;20138;-73
2023/05/17 06:23:56;;;;;;;10.65;3.70;;;10.40;99.90;;;;;;5128897;27;20047;-72
2023/05/17 06:26:22;;;;;;;7.55;3.28;;;10.40;99.60;;;;;;5121116;27;20180;-72
2023/05/17 06:28:48;;;;;;;7.22;3.55;;;10.60;99.90;;;;;;5124786;27;20416;-72
2023/05/17 06:31:13;;;;;;;12.38;3.38;;;10.60;98.90;;;;;;5133989;27;20038;-73
2023/05/17 06:33:39;;;;;;;10.90;3.70;;;11.00;99.30;;;;;;5136169;27;20457;-72
2023/05/17 06:36:05;;;;;;;8.32;3.17;;;11.00;98.60;;;;;;5133745;27;20055;-72
2023/05/17 06:38:31;;;;;;;11.82;4.30;;;10.90;97.40;;;;;;5134539;27;20119;-70
2023/05/17 06:40:57;;;;;;;6.15;3.38;;;10.80;98.20;;;;;;5132902;27;20043;-69
2023/05/17 06:43:23;;;;;;;8.27;3.30;;;10.70;98.60;;;;;;5121999;27;20131;-75
2023/05/17 06:45:49;;;;;;;7.13;3.08;;;10.60;99.00;;;;;;5137053;27;20079;-72
2023/05/17 06:48:15;;;;;;;9.15;3.67;;;10.50;98.40;;;;;;5141084;27;20050;-72
2023/05/17 06:50:41;;;;;;;7.75;3.65;;;10.50;98.90;;;;;;5139540;27;20042;-71
2023/05/17 06:53:06;;;;;;;11.07;4.05;;;10.50;99.60;;;;;;5122375;27;20051;-72
2023/05/17 06:55:32;;;;;;;7.20;3.42;;;10.50;99.40;;;;;;5139877;27;20416;-71
2023/05/17 06:57:59;;;;;;;7.35;3.53;;;10.50;99.80;;;;;;5135776;27;20050;-70
2023/05/17 07:00:24;;;;;;;8.55;3.42;;;10.40;99.90;;;;;;5120706;27;20103;-73
2023/05/17 07:02:51;;;;;;;15.18;4.35;;;10.40;99.90;;;;;;5120334;27;20043;-70
2023/05/17 07:05:16;;;;;;;10.85;4.03;;;10.30;99.90;;;;;;5132751;27;20166;-70
2023/05/17 07:07:42;;;;;;;13.52;4.38;;;10.30;99.90;;;;;;5133451;27;20737;-70
2023/05/17 07:10:08;;;;;;;11.45;3.97;;;10.30;99.90;;;;;;5128694;27;20484;-70
2023/05/17 07:12:34;;;;;;;12.02;3.75;;;10.30;99.90;;;;;;5119836;27;20038;-69
2023/05/17 07:15:00;;;;;;;8.88;3.58;;;10.30;99.90;;;;;;5103314;27;20565;-70
2023/05/17 07:17:26;;;;;;;12.88;5.18;;;10.50;99.90;;;;;;5119147;27;20141;-70
2023/05/17 07:19:51;;;;;;;10.95;4.00;;;10.40;99.90;;;;;;5137417;27;20530;-69
2023/05/17 07:22:18;;;;;;;9.05;3.78;;;10.40;99.90;;;;;;5133163;27;20166;-70
2023/05/17 07:24:45;;;;;;;10.95;4.40;;;10.50;99.90;;;;;;5119495;27;20180;-70
2023/05/17 07:27:11;;;;;;;8.40;3.15;;;10.50;99.10;;;;;;5138257;27;20046;-69
2023/05/17 07:29:37;;;;;;;13.02;4.10;;;10.50;99.90;;;;;;5126205;27;20053;-69
2023/05/17 07:32:03;;;;;;;13.27;4.60;;;10.60;99.90;;;;;;5128844;27;20043;-68
2023/05/17 07:34:29;;;;;;;9.35;3.72;;;10.60;99.90;;;;;;5124893;27;20481;-70
2023/05/17 07:36:55;;;;;;;12.18;3.88;;;10.70;99.90;;;;;;5124743;27;20741;-70
2023/05/17 07:39:21;;;;;;;11.10;3.45;;;10.80;99.90;;;;;;5141015;27;20089;-71
2023/05/17 07:41:46;;;;;;;11.30;4.03;;;10.90;99.60;;;;;;5129743;27;20047;-72
2023/05/17 07:44:12;;;;;;;10.20;3.45;;;10.90;98.40;;;;;;5132666;27;20047;-71
2023/05/17 07:46:38;;;;;;;12.38;3.58;;;11.00;99.50;;;;;;5100840;28;20039;-71
2023/05/17 07:49:03;;;;;;;10.70;3.72;;;11.00;99.10;;;;;;5114563;27;20112;-72
2023/05/17 07:51:30;;;;;;;9.18;4.00;;;11.30;99.40;;;;;;5133069;27;20047;-72
2023/05/17 07:53:56;;;;;;;7.88;3.47;;;11.50;99.30;;;;;;5136148;27;20050;-71
2023/05/17 07:56:21;;;;;;;7.47;2.78;;;11.40;97.90;;;;;;5122663;27;20049;-71
2023/05/17 07:58:47;;;;;;;9.35;3.55;;;11.40;98.30;;;;;;5133613;27;20047;-72
2023/05/17 08:01:13;;;;;;;8.27;3.20;;;11.50;98.20;;;;;;5132598;27;20066;-72
2023/05/17 08:03:46;;;;;;;11.85;3.67;;;11.30;96.80;;;;;;5136961;27;20506;-71
2023/05/17 08:06:15;;;;;;;6.55;2.92;;;11.40;98.10;;;;;;5133358;27;20050;-70
2023/05/17 08:08:41;;;;;;;9.90;3.88;;;11.30;98.60;;;;;;5132699;27;20056;-70
2023/05/17 08:11:08;;;;;;;14.13;4.47;;;11.30;99.20;;;;;;5126667;27;20030;-70
2023/05/17 08:13:33;;;;;;;9.75;3.88;;;11.20;97.90;;;;;;5120744;27;20075;-68
2023/05/17 08:16:02;;;;;;;12.55;3.90;;;11.20;99.30;;;;;;5125836;27;20130;-71
2023/05/17 08:18:29;;;;;;;5.85;2.85;;;11.30;99.10;;;;;;5119593;27;20491;-70
2023/05/17 08:20:55;;;;;;;5.32;3.13;;;11.40;98.70;;;;;;5125133;27;20088;-70
2023/05/17 08:23:21;;;;;;;16.50;3.78;;;11.40;98.00;;;;;;5108868;27;20137;-71
2023/05/17 08:25:47;;;;;;;8.32;3.20;;;11.60;98.40;;;;;;5135882;27;20191;-71
2023/05/17 08:28:12;;;;;;;10.07;3.65;;;11.70;98.70;;;;;;5139423;27;20046;-70
2023/05/17 08:30:38;;;;;;;9.55;3.90;;;11.50;98.00;;;;;;5110140;27;20034;-71
2023/05/17 08:33:05;;;;;;;13.18;4.25;;;11.50;98.00;;;;;;5110265;27;20043;-71
2023/05/17 08:35:30;;;;;;;9.38;3.88;;;11.40;97.50;;;;;;5135347;27;20621;-72
2023/05/17 08:37:56;;;;;;;6.72;3.45;;;11.40;98.30;;;;;;5134955;27;20046;-72
2023/05/17 08:40:22;;;;;;;9.88;3.63;;;11.40;98.60;;;;;;5143529;27;20047;-72
2023/05/17 08:42:51;;;;;;;13.73;3.72;;;11.50;98.70;;;;;;5126824;27;20059;-70
2023/05/17 08:45:17;;;;;;;10.73;4.20;;;11.60;98.30;;;;;;5135244;27;20291;-73
2023/05/17 08:47:45;;;;;;;7.25;3.25;;;11.60;98.00;;;;;;5136922;27;20091;-71
2023/05/17 08:50:11;;;;;;;7.68;3.72;;;11.80;98.20;;;;;;5129267;27;20074;-70
2023/05/17 08:52:39;;;;;;;11.35;3.38;;;11.80;98.30;;;;;;5125822;27;20092;-70
2023/05/17 08:55:06;;;;;;;6.68;3.30;;;11.60;97.20;;;;;;5130705;27;20050;-70
2023/05/17 08:57:35;;;;;;;7.28;3.00;;;11.50;97.10;;;;;;5128229;27;20389;-71
2023/05/17 09:00:03;;;;;;;5.43;2.50;;;11.70;97.20;;;;;;5141339;27;20055;-70
2023/05/17 09:02:30;;;;;;;8.98;3.03;;;11.80;95.60;;;;;;5135358;27;20046;-69
2023/05/17 09:04:56;;;;;;;8.65;3.35;;;11.90;95.70;;;;;;5138179;27;20079;-71
2023/05/17 09:07:22;;;;;;;5.65;2.42;;;12.30;94.60;;;;;;5114863;27;20453;-69
2023/05/17 09:09:54;;;;;;;5.55;2.40;;;13.30;94.80;;;;;;5126727;27;20500;-73
2023/05/17 09:12:20;;;;;;;6.30;2.50;;;14.10;91.40;;;;;;5131635;27;20042;-71
2023/05/17 09:14:46;;;;;;;6.68;2.28;;;14.40;88.50;;;;;;5121105;27;20450;-78
2023/05/17 09:17:19;;;;;;;7.25;2.60;;;14.80;91.40;;;;;;5136832;27;20042;-70
2023/05/17 09:19:46;;;;;;;4.18;1.98;;;16.00;90.50;;;;;;5133844;27;20055;-73
2023/05/17 09:22:19;;;;;;;5.10;1.90;;;16.10;90.00;;;;;;5132198;27;20127;-72
2023/05/17 09:24:45;;;;;;;5.10;2.08;;;16.00;91.90;;;;;;5135370;27;20593;-73
2023/05/17 09:27:16;;;;;;;7.00;2.38;;;15.10;89.80;;;;;;5143077;27;20051;-72
2023/05/17 09:29:43;;;;;;;4.07;2.33;;;14.80;86.20;;;;;;5141084;27;20059;-72
2023/05/17 09:32:23;;;;;;;4.53;2.13;;;14.20;90.80;;;;;;5105511;27;20075;-71
2023/05/17 09:34:50;;;;;;;9.10;2.42;;;13.70;89.50;;;;;;5116477;27;20432;-71
2023/05/17 09:37:17;;;;;;;6.47;2.30;;;13.30;89.80;;;;;;5123994;27;20087;-74
2023/05/17 09:39:44;;;;;;;4.30;2.20;;;13.50;91.60;;;;;;5132455;27;20152;-73
2023/05/17 09:42:11;;;;;;;3.70;1.95;;;13.50;91.40;;;;;;5143610;27;20241;-72
2023/05/17 09:44:46;;;;;;;8.45;2.38;;;13.70;92.00;;;;;;5140678;27;20125;-73
2023/05/17 09:47:21;;;;;;;7.97;2.72;;;13.20;91.30;;;;;;5112468;27;20547;-74
2023/05/17 09:49:47;;;;;;;9.48;2.50;;;12.90;91.60;;;;;;5121926;27;20046;-73
2023/05/17 09:52:17;;;;;;;5.40;2.08;;;12.70;93.10;;;;;;5134813;27;20053;-72
2023/05/17 09:54:43;;;;;;;9.77;2.50;;;12.60;93.20;;;;;;5121245;27;20050;-72
2023/05/17 09:57:09;;;;;;;11.23;3.50;;;12.40;93.70;;;;;;5140254;27;20757;-72
2023/05/17 09:59:36;;;;;;;5.70;2.10;;;12.20;93.90;;;;;;5108696;27;20042;-73
2023/05/17 10:02:06;;;;;;;6.65;2.20;;;12.40;93.70;;;;;;5124128;27;20055;-72
2023/05/17 10:04:36;;;;;;;7.38;2.80;;;12.60;93.60;;;;;;5122111;27;20047;-73
2023/05/17 10:07:03;;;;;;;6.18;2.72;;;12.60;93.00;;;;;;5134829;27;20081;-72
2023/05/17 10:09:33;;;;;;;6.00;3.17;;;12.80;93.30;;;;;;5141389;27;20115;-74
2023/05/17 10:12:00;;;;;;;3.08;2.10;;;12.80;92.60;;;;;;5111785;27;20076;-72
2023/05/17 10:14:30;;;;;;;5.50;2.40;;;12.70;92.30;;;;;;5139788;27;20057;-71
2023/05/17 10:16:57;;;;;;;7.13;2.63;;;12.70;92.10;;;;;;5136417;27;20640;-71
2023/05/17 10:19:24;;;;;;;7.78;2.88;;;12.70;92.20;;;;;;5138604;27;20049;-70
2023/05/17 10:21:53;;;;;;;5.60;2.30;;;12.70;91.70;;;;;;5133318;27;20054;-76
2023/05/17 10:24:20;;;;;;;5.93;2.70;;;12.60;92.30;;;;;;5132047;27;20043;-75
2023/05/17 10:26:50;;;;;;;6.20;2.70;;;12.50;92.60;;;;;;5113780;27;20047;-71
2023/05/17 10:29:16;;;;;;;6.05;2.50;;;12.70;92.90;;;;;;5096513;27;20050;-78
2023/05/17 10:31:43;;;;;;;5.90;2.45;;;12.60;92.20;;;;;;5141374;27;20314;-74
2023/05/17 10:34:10;;;;;;;6.07;3.15;;;12.60;91.70;;;;;;5137233;27;20046;-73
2023/05/17 10:36:36;;;;;;;6.35;2.30;;;12.60;91.70;;;;;;5136376;27;20058;-73
2023/05/17 10:39:06;;;;;;;8.45;2.35;;;13.50;91.70;;;;;;5100788;27;20082;-79
2023/05/17 10:41:33;;;;;;;7.53;2.70;;;14.40;90.90;;;;;;5125696;27;20043;-70
2023/05/17 10:44:02;;;;;;;3.88;2.10;;;13.90;89.20;;;;;;5140818;27;20082;-70
2023/05/17 10:46:29;;;;;;;7.35;2.70;;;14.00;90.80;;;;;;5132320;27;20039;-72
2023/05/17 10:48:57;;;;;;;9.30;2.78;;;13.60;90.10;;;;;;5136928;27;20098;-69
2023/05/17 10:51:25;;;;;;;6.10;2.38;;;13.40;90.60;;;;;;5123163;27;20047;-76
2023/05/17 10:54:04;;;;;;;5.72;2.17;;;13.50;90.90;;;;;;5137558;27;20811;-75
2023/05/17 10:56:31;;;;;;;6.47;1.88;;;13.50;91.00;;;;;;5133491;27;20102;-75
2023/05/17 10:59:22;;;;;;;5.47;2.13;;;13.80;90.70;;;;;;5128749;27;20541;-73
2023/05/17 11:02:08;;;;;;;4.07;2.20;;;13.40;89.50;;;;;;5126443;27;20122;-74
2023/05/17 11:04:42;;;;;;;5.05;1.83;;;13.30;90.00;;;;;;5123987;27;20043;-74
2023/05/17 11:07:17;;;;;;;6.25;2.33;;;13.40;91.20;;;;;;5130791;27;20104;-76
2023/05/17 11:09:50;;;;;;;5.45;2.30;;;13.30;90.40;;;;;;5132297;27;20050;-75
2023/05/17 11:12:31;;;;;;;8.68;1.90;;;13.30;90.80;;;;;;5126627;27;20043;-75
2023/05/17 11:14:57;;;;;;;8.70;2.60;;;13.50;91.30;;;;;;5126163;27;20043;-75
2023/05/17 11:17:43;;;;;;;3.90;2.00;;;13.50;90.50;;;;;;5115890;27;20105;-75
2023/05/17 11:20:28;;;;;;;3.65;2.30;;;13.60;90.30;;;;;;5116801;27;20059;-75
2023/05/17 11:23:05;;;;;;;9.50;2.55;;;13.60;91.00;;;;;;5121799;27;20083;-74
2023/05/17 11:25:34;;;;;;;4.93;2.22;;;13.30;91.00;;;;;;5125326;27;20054;-74
2023/05/17 11:28:09;;;;;;;7.25;2.80;;;13.50;90.90;;;;;;5128729;27;20068;-76
2023/05/17 11:30:40;;;;;;;6.68;2.60;;;13.90;91.10;;;;;;5129911;27;20122;-75
2023/05/17 11:33:06;;;;;;;8.48;2.30;;;13.60;91.00;;;;;;5104787;27;20056;-75
2023/05/17 11:35:38;;;;;;;5.35;2.63;;;13.70;91.40;;;;;;5141566;27;20122;-76
2023/05/17 11:38:14;;;;;;;6.07;2.45;;;13.70;91.80;;;;;;5120918;27;20043;-74
2023/05/17 11:40:41;;;;;;;5.75;3.17;;;13.70;90.40;;;;;;5133955;27;20550;-76
2023/05/17 11:43:10;;;;;;;8.18;2.55;;;13.60;90.50;;;;;;5140030;27;20051;-75
2023/05/17 11:46:04;;;;;;;8.77;3.00;;;13.30;91.00;;;;;;5137914;27;20142;-74
2023/05/17 11:48:31;;;;;;;10.48;2.70;;;13.00;90.80;;;;;;5132704;27;20057;-73
2023/05/17 11:50:57;;;;;;;7.22;2.95;;;13.00;91.80;;;;;;5121043;27;20067;-77
2023/05/17 11:53:24;;;;;;;3.15;2.30;;;13.10;90.30;;;;;;5118546;27;20042;-73
2023/05/17 11:55:51;;;;;;;4.60;2.33;;;13.40;91.40;;;;;;5139435;27;20101;-79
2023/05/17 11:58:24;;;;;;;7.07;2.78;;;13.60;90.50;;;;;;5118028;27;20130;-75
2023/05/17 12:00:56;;;;;;;6.15;2.47;;;13.60;86.80;;;;;;5115417;27;20410;-75
2023/05/17 12:03:24;;;;;;;4.72;2.08;;;13.80;90.90;;;;;;5135370;27;20043;-75
2023/05/17 12:06:00;;;;;;;6.10;2.72;;;13.60;89.60;;;;;;5138684;27;20051;-75
2023/05/17 12:08:26;;;;;;;5.28;2.50;;;13.60;90.60;;;;;;5131092;27;20092;-75
2023/05/17 12:10:55;;;;;;;4.47;2.30;;;13.30;90.80;;;;;;5120569;27;20050;-76
2023/05/17 12:13:21;;;;;;;5.93;2.53;;;13.50;90.20;;;;;;5127749;27;20059;-75
2023/05/17 12:15:58;;;;;;;8.35;2.72;;;13.30;91.60;;;;;;5143139;27;21159;-76
2023/05/17 12:18:40;;;;;;;11.68;3.17;;;13.20;90.90;;;;;;5135032;27;20062;-77
2023/05/17 12:21:07;;;;;;;5.97;2.53;;;13.20;91.30;;;;;;5127981;27;20051;-78
2023/05/17 12:23:34;;;;;;;7.05;2.30;;;13.10;90.10;;;;;;5110637;27;20061;-73
2023/05/17 12:26:10;;;;;;;7.57;2.97;;;12.90;90.40;;;;;;5128035;27;20046;-75
2023/05/17 12:28:38;;;;;;;8.10;2.70;;;13.00;90.80;;;;;;5142091;27;20053;-75
2023/05/17 12:31:09;;;;;;;6.30;3.05;;;13.20;90.40;;;;;;5138220;27;20050;-76
2023/05/17 12:33:40;;;;;;;6.57;2.50;;;13.30;90.20;;;;;;5131716;27;20073;-75
2023/05/17 12:36:08;;;;;;;7.10;3.28;;;13.50;90.90;;;;;;5118081;27;20127;-78
2023/05/17 12:38:35;;;;;;;7.05;3.00;;;13.50;90.90;;;;;;5145213;27;20118;-76
2023/05/17 12:41:03;;;;;;;4.00;2.60;;;13.40;90.50;;;;;;5126768;27;20047;-76
2023/05/17 12:43:31;;;;;;;7.95;3.25;;;13.50;91.10;;;;;;5141874;27;20046;-74
2023/05/17 12:46:12;;;;;;;6.85;2.75;;;13.70;90.10;;;;;;5119206;27;20051;-76
2023/05/17 12:48:39;;;;;;;8.48;2.53;;;13.50;90.00;;;;;;5128090;27;20055;-76
2023/05/17 12:51:06;;;;;;;4.40;2.58;;;13.20;91.30;;;;;;5124128;27;20042;-72